KSRC

Searcy Municipal Airport

Searcy, Arkansas, USA
METAR KSRC 220456Z AUTO 23003KT 10SM CLR 23/17 A2979 RMK AO2 SLP093 T02330172 403280217
Observed Flight Rules
Jun-22 @ 04:56 UTC (42 minutes ago) Visual Flight Rules
Wind Visibility Clouds
230° at 3 knots 10 miles
  • Clear skies
Temperatures Readings
Current 23°C / 73°F
Dewpoint 17°C / 63°F
Humidity 69%
Altimeter 29.79" Hg
Pressure 1009.3 hPa
Elevation 80
METAR KSRC 220456Z AUTO 23003KT 10SM CLR 23/17 A2979 RMK AO2 SLP093 T02330172 403280217
Observed Flight Rules
Jun-22 @ 04:56 UTC
(42 minutes ago)
VFR
Wind Visibility
230° at 3 knots 10 miles
Clouds
  • Clear skies
Temperature Dewpoint
23°C / 73°F 17°C / 63°F
Humidity Altimeter Pressure
69% 29.79" Hg 1009.3 hPa